Time;durP1;ratioP1;P1;durP2;ratioP2;P2;SDS_P1;SDS_P2;PMS_P1;PMS_P2;Temp;Humidity;BMP_temperature;BMP_pressure;BME280_temperature;BME280_humidity;BME280_pressure;Samples;Min_cycle;Max_cycle;Signal;HPM_P1;HPM_P2
2022/08/28 00:00:14;;;;;;;29.77;13.77;;;16.70;99.90;;;;;;4996041;28;20049;-60
2022/08/28 00:02:41;;;;;;;18.88;10.02;;;16.70;99.90;;;;;;4995239;28;20067;-59
2022/08/28 00:05:08;;;;;;;21.92;9.45;;;16.60;99.90;;;;;;5013023;28;20050;-59
2022/08/28 00:07:35;;;;;;;12.00;7.60;;;16.50;99.90;;;;;;4979829;28;20049;-59
2022/08/28 00:10:03;;;;;;;12.07;5.35;;;16.40;99.90;;;;;;5012870;28;20046;-59
2022/08/28 00:12:30;;;;;;;17.65;5.70;;;16.40;99.90;;;;;;5013378;28;20129;-59
2022/08/28 00:14:57;;;;;;;8.43;4.88;;;16.30;99.90;;;;;;5016409;28;20049;-59
2022/08/28 00:17:24;;;;;;;10.32;4.80;;;16.20;99.90;;;;;;5000206;28;20493;-60
2022/08/28 00:19:51;;;;;;;15.00;6.63;;;16.20;99.90;;;;;;5014253;28;20103;-59
2022/08/28 00:22:18;;;;;;;9.68;4.93;;;16.20;99.90;;;;;;5012974;28;20049;-59
2022/08/28 00:24:45;;;;;;;9.32;3.63;;;16.20;99.90;;;;;;5013161;28;20080;-59
2022/08/28 00:29:58;;;;;;;7.28;3.03;;;16.20;99.90;;;;;;5010338;28;20073;-59
2022/08/28 00:32:25;;;;;;;9.20;3.05;;;16.20;99.90;;;;;;5011029;28;20092;-58
2022/08/28 00:34:52;;;;;;;7.82;3.10;;;16.20;99.90;;;;;;5011743;28;20042;-59
2022/08/28 00:37:19;;;;;;;11.50;3.08;;;16.20;99.90;;;;;;5012608;28;20046;-59
2022/08/28 00:39:50;;;;;;;7.47;3.30;;;16.30;99.90;;;;;;4995502;28;20464;-58
2022/08/28 00:42:17;;;;;;;10.30;3.72;;;16.20;99.90;;;;;;4994970;28;20054;-60
2022/08/28 00:44:44;;;;;;;11.52;4.40;;;16.20;99.90;;;;;;4994444;28;20398;-58
2022/08/28 00:47:11;;;;;;;6.95;2.97;;;16.10;99.90;;;;;;5012857;28;20042;-59
2022/08/28 00:49:46;;;;;;;8.90;2.95;;;16.00;99.90;;;;;;5013086;28;20476;-60
2022/08/28 00:52:14;;;;;;;6.35;2.30;;;16.00;99.90;;;;;;4980064;28;20073;-60
2022/08/28 00:54:43;;;;;;;7.10;2.80;;;16.00;99.90;;;;;;4995062;28;20131;-59
2022/08/28 00:57:52;;;;;;;6.18;2.22;;;16.00;99.90;;;;;;4997390;28;20129;-59
2022/08/28 01:00:37;;;;;;;11.20;2.92;;;16.00;99.90;;;;;;5011283;28;20058;-59
2022/08/28 01:03:04;;;;;;;11.90;3.53;;;15.90;99.90;;;;;;4994661;28;20050;-59
2022/08/28 01:05:33;;;;;;;7.10;3.08;;;15.90;99.90;;;;;;4995257;28;20049;-61
2022/08/28 01:08:00;;;;;;;7.15;2.90;;;15.90;99.90;;;;;;4995286;28;20046;-58
2022/08/28 01:10:28;;;;;;;4.57;2.40;;;15.80;99.90;;;;;;4995031;28;20050;-59
2022/08/28 01:12:55;;;;;;;6.53;2.72;;;15.80;99.90;;;;;;4985203;28;20050;-59
2022/08/28 01:15:27;;;;;;;6.45;3.28;;;15.80;99.90;;;;;;5002753;28;20058;-59
2022/08/28 01:17:57;;;;;;;5.68;2.85;;;15.80;99.90;;;;;;4986542;28;20042;-59
2022/08/28 01:20:26;;;;;;;11.27;3.42;;;15.80;99.90;;;;;;4995361;28;20498;-58
2022/08/28 01:23:12;;;;;;;6.93;2.35;;;15.70;99.90;;;;;;4994908;28;20453;-59
2022/08/28 01:25:40;;;;;;;7.25;2.65;;;15.70;99.90;;;;;;4995399;28;20429;-59
2022/08/28 01:28:09;;;;;;;4.70;3.10;;;15.60;99.90;;;;;;4996420;28;20043;-59
2022/08/28 01:30:36;;;;;;;7.40;3.17;;;15.60;99.90;;;;;;4995030;28;20477;-59
2022/08/28 01:33:03;;;;;;;8.32;3.15;;;15.60;99.90;;;;;;4996479;28;20130;-59
2022/08/28 01:35:32;;;;;;;6.40;3.22;;;15.60;99.90;;;;;;4996011;28;20085;-59
2022/08/28 01:37:59;;;;;;;7.43;2.90;;;15.60;99.90;;;;;;4996488;28;20073;-59
2022/08/28 01:40:38;;;;;;;5.03;2.50;;;15.60;99.90;;;;;;4996229;28;20133;-59
2022/08/28 01:43:09;;;;;;;8.65;2.75;;;15.60;99.90;;;;;;4995059;28;20097;-59
2022/08/28 01:45:36;;;;;;;3.65;2.50;;;15.50;99.90;;;;;;4995732;28;20065;-59
2022/08/28 01:48:04;;;;;;;7.22;2.80;;;15.40;99.90;;;;;;4997172;28;20078;-59
2022/08/28 01:50:32;;;;;;;6.18;2.88;;;15.30;99.90;;;;;;4996668;28;20102;-59
2022/08/28 01:53:00;;;;;;;7.22;2.83;;;15.20;99.90;;;;;;4996345;28;20050;-60
2022/08/28 01:55:27;;;;;;;16.15;7.60;;;15.20;99.90;;;;;;4979177;28;20105;-60
2022/08/28 01:57:55;;;;;;;6.60;3.75;;;15.20;99.90;;;;;;4995202;28;20298;-59
2022/08/28 02:00:26;;;;;;;5.57;3.63;;;15.30;99.90;;;;;;4977981;28;20410;-60
2022/08/28 02:02:54;;;;;;;7.30;3.80;;;15.20;99.90;;;;;;4999016;28;20046;-60
2022/08/28 02:05:26;;;;;;;10.05;4.63;;;15.20;99.90;;;;;;5001393;28;20105;-59
2022/08/28 02:07:52;;;;;;;13.27;5.57;;;15.30;99.90;;;;;;5003099;28;20039;-59
2022/08/28 02:10:24;;;;;;;9.85;5.47;;;15.30;99.90;;;;;;5001457;28;20054;-59
2022/08/28 02:12:51;;;;;;;17.75;6.43;;;15.30;99.90;;;;;;5006059;28;20126;-60
2022/08/28 02:15:18;;;;;;;22.73;11.00;;;15.30;99.90;;;;;;5022624;28;20057;-60
2022/08/28 02:17:49;;;;;;;12.48;5.80;;;15.20;99.90;;;;;;5004935;28;20056;-59
2022/08/28 02:20:16;;;;;;;9.85;4.30;;;15.10;99.90;;;;;;5014045;28;20100;-58
2022/08/28 02:22:43;;;;;;;6.25;2.95;;;15.10;99.90;;;;;;5020059;28;20494;-59
2022/08/28 02:25:10;;;;;;;12.43;4.32;;;15.00;99.90;;;;;;5001609;28;20474;-58
2022/08/28 02:27:37;;;;;;;8.38;2.83;;;14.90;99.90;;;;;;5020386;28;20076;-58
2022/08/28 02:30:05;;;;;;;7.43;3.17;;;14.90;99.90;;;;;;5002525;28;20081;-60
2022/08/28 02:32:32;;;;;;;11.45;3.05;;;14.80;99.90;;;;;;5019224;28;20042;-58
2022/08/28 02:34:59;;;;;;;10.05;3.22;;;14.80;99.90;;;;;;5018257;28;20676;-58
2022/08/28 02:37:26;;;;;;;9.73;4.75;;;14.90;99.90;;;;;;4997418;28;20096;-58
2022/08/28 02:39:57;;;;;;;19.25;8.38;;;14.90;99.90;;;;;;5015034;28;20112;-59
2022/08/28 02:42:25;;;;;;;10.80;5.40;;;14.90;99.90;;;;;;4971447;28;20042;-59
2022/08/28 02:44:52;;;;;;;12.18;5.45;;;14.90;99.90;;;;;;4998248;28;20057;-60
2022/08/28 02:47:18;;;;;;;11.23;4.15;;;14.90;99.90;;;;;;5015287;28;20041;-60
2022/08/28 02:49:45;;;;;;;8.45;3.53;;;14.90;99.90;;;;;;5015010;28;20046;-60
2022/08/28 02:52:12;;;;;;;12.00;4.40;;;14.90;99.90;;;;;;5014638;28;20069;-60
2022/08/28 02:54:39;;;;;;;6.32;2.97;;;14.80;99.90;;;;;;4994484;28;20045;-60
2022/08/28 02:57:07;;;;;;;9.70;3.92;;;14.80;99.90;;;;;;5014708;28;20038;-60
2022/08/28 02:59:38;;;;;;;6.78;3.05;;;14.80;99.90;;;;;;5015054;28;20130;-60
2022/08/28 03:02:05;;;;;;;8.05;3.00;;;14.70;99.90;;;;;;4965095;28;20081;-60
2022/08/28 03:04:34;;;;;;;4.82;2.47;;;14.70;99.90;;;;;;5012828;28;20128;-59
2022/08/28 03:07:01;;;;;;;8.05;3.75;;;14.60;99.90;;;;;;5014623;28;20081;-58
2022/08/28 03:09:28;;;;;;;5.15;2.95;;;14.70;99.90;;;;;;5012713;28;20527;-59
2022/08/28 03:11:55;;;;;;;6.70;3.00;;;14.60;99.90;;;;;;5007642;28;20049;-60
2022/08/28 03:14:22;;;;;;;5.22;3.00;;;14.60;99.90;;;;;;4996332;28;20088;-59
2022/08/28 03:16:49;;;;;;;6.95;3.67;;;14.60;99.90;;;;;;4981238;28;20038;-59
2022/08/28 03:19:15;;;;;;;8.20;3.92;;;14.60;99.90;;;;;;4996991;28;20054;-60
2022/08/28 03:21:42;;;;;;;6.20;3.70;;;14.60;99.90;;;;;;4996948;28;20448;-60
2022/08/28 03:24:09;;;;;;;7.53;2.58;;;14.60;99.90;;;;;;5014320;28;20119;-60
2022/08/28 03:26:40;;;;;;;8.00;3.28;;;14.50;99.90;;;;;;4997633;28;20092;-60
2022/08/28 03:29:07;;;;;;;12.70;3.72;;;14.60;99.90;;;;;;5014366;28;20064;-60
2022/08/28 03:31:35;;;;;;;6.65;2.58;;;14.50;99.90;;;;;;5010758;28;20077;-59
2022/08/28 03:34:01;;;;;;;5.30;2.38;;;14.50;99.90;;;;;;5009887;28;20049;-59
2022/08/28 03:36:28;;;;;;;8.55;3.03;;;14.60;99.90;;;;;;5013584;28;20858;-59
2022/08/28 03:39:00;;;;;;;6.95;2.60;;;14.60;99.90;;;;;;5014005;28;20050;-59
2022/08/28 03:41:28;;;;;;;10.50;3.03;;;14.60;99.90;;;;;;4996751;28;20081;-59
2022/08/28 03:43:56;;;;;;;8.68;3.30;;;14.60;99.90;;;;;;4996864;28;20042;-61
2022/08/28 03:46:23;;;;;;;7.15;2.40;;;14.60;99.90;;;;;;5012790;28;20089;-59
2022/08/28 03:48:50;;;;;;;4.75;2.20;;;14.60;99.90;;;;;;5016162;28;20053;-59
2022/08/28 03:51:29;;;;;;;3.42;2.33;;;14.60;99.90;;;;;;5017498;28;20042;-59
2022/08/28 03:53:57;;;;;;;3.90;2.35;;;14.50;99.90;;;;;;5016695;28;20072;-59
2022/08/28 03:56:24;;;;;;;6.20;2.17;;;14.50;99.90;;;;;;4981465;28;20065;-59
2022/08/28 03:58:53;;;;;;;5.18;2.45;;;14.50;99.90;;;;;;5013296;28;20058;-59
2022/08/28 04:01:20;;;;;;;5.32;2.35;;;14.50;99.90;;;;;;4993057;28;20112;-59
2022/08/28 04:03:47;;;;;;;9.23;2.35;;;14.60;99.90;;;;;;5010502;28;20065;-59
2022/08/28 04:06:14;;;;;;;6.05;2.20;;;14.60;99.90;;;;;;5012938;28;20120;-59
2022/08/28 04:08:41;;;;;;;6.00;1.92;;;14.50;99.90;;;;;;5012627;28;20041;-59
2022/08/28 04:11:08;;;;;;;6.35;2.03;;;14.50;99.90;;;;;;5012704;28;20077;-59
2022/08/28 04:13:35;;;;;;;5.90;2.05;;;14.60;99.90;;;;;;4995889;28;20475;-59
2022/08/28 04:16:11;;;;;;;6.60;1.85;;;14.60;99.90;;;;;;5012931;28;20046;-59
2022/08/28 04:18:38;;;;;;;4.13;2.33;;;14.60;99.90;;;;;;4996042;28;20056;-59
2022/08/28 04:21:07;;;;;;;5.93;2.17;;;14.60;99.90;;;;;;4979503;28;20069;-59
2022/08/28 04:23:35;;;;;;;4.90;2.25;;;14.60;99.90;;;;;;5013046;28;20037;-59
2022/08/28 04:26:06;;;;;;;3.67;1.83;;;14.60;99.90;;;;;;4995475;28;20045;-59
2022/08/28 04:28:33;;;;;;;4.25;1.77;;;14.70;99.90;;;;;;4979662;28;20092;-59
2022/08/28 04:31:00;;;;;;;5.47;2.05;;;14.80;99.90;;;;;;5012657;28;20073;-59
2022/08/28 04:33:28;;;;;;;8.60;3.35;;;14.80;99.90;;;;;;4995566;28;20108;-59
2022/08/28 04:35:55;;;;;;;4.60;1.42;;;14.90;99.90;;;;;;5012727;28;20077;-58
2022/08/28 04:38:22;;;;;;;6.68;1.77;;;14.90;99.90;;;;;;4995224;28;20116;-59
2022/08/28 04:40:49;;;;;;;5.63;1.95;;;14.90;99.90;;;;;;4995229;28;20046;-58
2022/08/28 04:43:16;;;;;;;3.35;1.55;;;14.90;99.90;;;;;;4991888;28;20096;-58
2022/08/28 04:45:43;;;;;;;5.00;1.98;;;14.80;99.90;;;;;;4979375;28;20071;-58
2022/08/28 04:48:14;;;;;;;5.40;1.65;;;14.80;99.90;;;;;;5015070;28;20544;-58
2022/08/28 04:50:42;;;;;;;8.60;3.30;;;14.80;99.90;;;;;;5016739;28;20069;-59
2022/08/28 04:53:09;;;;;;;2.85;1.67;;;14.80;99.90;;;;;;4998895;28;20493;-58
2022/08/28 04:55:42;;;;;;;6.85;1.98;;;14.70;99.90;;;;;;4967318;28;20100;-58
2022/08/28 04:58:20;;;;;;;5.97;1.88;;;14.70;99.90;;;;;;4998723;28;20054;-60
2022/08/28 05:00:50;;;;;;;4.80;2.00;;;14.70;99.90;;;;;;5016449;28;20049;-60
2022/08/28 05:03:17;;;;;;;8.70;2.00;;;14.70;99.90;;;;;;5016165;28;20603;-58
2022/08/28 05:05:45;;;;;;;4.93;2.45;;;14.70;99.90;;;;;;5016067;28;20073;-59
2022/08/28 05:08:12;;;;;;;4.47;2.20;;;14.70;99.90;;;;;;5016110;28;20046;-58
2022/08/28 05:10:41;;;;;;;6.60;1.70;;;14.60;99.90;;;;;;5016159;28;20108;-58
2022/08/28 05:13:11;;;;;;;4.88;2.05;;;14.50;99.90;;;;;;5015584;28;20071;-59
2022/08/28 05:15:43;;;;;;;3.67;2.15;;;14.50;99.90;;;;;;4998379;28;20114;-59
2022/08/28 05:18:12;;;;;;;4.63;1.80;;;14.60;99.90;;;;;;5015126;28;20066;-59
2022/08/28 05:20:41;;;;;;;2.58;1.50;;;14.60;99.90;;;;;;4998823;28;20049;-58
2022/08/28 05:23:08;;;;;;;4.63;1.85;;;14.60;99.90;;;;;;5015965;28;20522;-59
2022/08/28 05:25:36;;;;;;;6.05;2.20;;;14.60;99.90;;;;;;5015694;28;20042;-60
2022/08/28 05:28:04;;;;;;;7.78;2.15;;;14.60;99.90;;;;;;4997752;28;20070;-59
2022/08/28 05:30:36;;;;;;;5.15;1.77;;;14.60;99.90;;;;;;4998576;28;20065;-58
2022/08/28 05:33:03;;;;;;;1.92;1.50;;;14.60;99.90;;;;;;5015660;28;20442;-59
2022/08/28 05:35:38;;;;;;;9.13;1.88;;;14.60;99.90;;;;;;4998474;28;20077;-58
2022/08/28 05:38:05;;;;;;;4.70;2.08;;;14.60;99.90;;;;;;4997663;28;20058;-59
2022/08/28 05:40:32;;;;;;;5.13;1.90;;;14.60;99.90;;;;;;5015447;28;20497;-59
2022/08/28 05:42:59;;;;;;;6.82;2.00;;;14.60;99.90;;;;;;4981612;28;20129;-59
2022/08/28 05:45:26;;;;;;;3.78;1.85;;;14.60;99.90;;;;;;4981808;28;20104;-59
2022/08/28 05:47:53;;;;;;;9.40;1.85;;;14.60;99.90;;;;;;4998073;28;20046;-58
2022/08/28 05:50:20;;;;;;;3.75;2.13;;;14.70;99.90;;;;;;5015067;28;20049;-59
2022/08/28 05:52:48;;;;;;;8.10;3.05;;;14.70;99.90;;;;;;4998013;28;20081;-59
2022/08/28 05:55:16;;;;;;;7.68;2.25;;;14.80;99.90;;;;;;4997478;28;20082;-60
2022/08/28 05:57:43;;;;;;;4.97;1.90;;;14.80;99.90;;;;;;4981297;28;20061;-60
2022/08/28 06:00:12;;;;;;;3.47;1.73;;;14.80;99.90;;;;;;5013454;28;20486;-58
2022/08/28 06:02:40;;;;;;;3.42;1.77;;;14.80;99.90;;;;;;5009179;28;20054;-59
2022/08/28 06:05:08;;;;;;;4.80;2.15;;;14.90;99.90;;;;;;5014771;28;20042;-59
2022/08/28 06:07:39;;;;;;;8.80;2.20;;;14.90;99.90;;;;;;4997883;28;20432;-60
2022/08/28 06:10:06;;;;;;;8.43;2.90;;;14.90;99.90;;;;;;5014487;28;20073;-60
2022/08/28 06:12:36;;;;;;;6.50;2.47;;;15.00;99.90;;;;;;5014728;28;20057;-60
2022/08/28 06:15:04;;;;;;;3.75;1.80;;;15.00;99.90;;;;;;5014728;28;20100;-59
2022/08/28 06:17:31;;;;;;;4.95;2.03;;;15.10;99.90;;;;;;4981557;28;20044;-59
2022/08/28 06:19:58;;;;;;;10.00;2.17;;;15.10;99.90;;;;;;5014059;28;20104;-59
2022/08/28 06:22:24;;;;;;;6.53;1.88;;;15.10;99.90;;;;;;5014460;28;20049;-59
2022/08/28 06:24:52;;;;;;;7.60;2.40;;;15.20;99.90;;;;;;4997180;28;20178;-59
2022/08/28 06:27:19;;;;;;;4.05;2.45;;;15.20;99.90;;;;;;5014580;28;20099;-59
2022/08/28 06:29:46;;;;;;;6.78;1.80;;;15.20;99.90;;;;;;5014407;28;20077;-60
2022/08/28 06:32:13;;;;;;;7.63;2.15;;;15.20;99.90;;;;;;4996833;28;20088;-60
2022/08/28 06:34:40;;;;;;;4.82;1.90;;;15.30;99.90;;;;;;4996927;28;20100;-59
2022/08/28 06:37:08;;;;;;;5.07;2.05;;;15.40;99.90;;;;;;5014666;28;20111;-59
2022/08/28 06:39:35;;;;;;;3.13;1.75;;;15.50;99.90;;;;;;4996804;28;20053;-59
2022/08/28 06:42:02;;;;;;;11.07;2.13;;;15.60;99.90;;;;;;5013457;28;20540;-58
2022/08/28 06:44:31;;;;;;;3.53;2.08;;;15.70;99.90;;;;;;5014125;28;20073;-59
2022/08/28 06:46:59;;;;;;;5.10;1.80;;;15.70;99.90;;;;;;5012556;28;20046;-58
2022/08/28 06:49:26;;;;;;;7.43;2.00;;;15.70;99.90;;;;;;4996640;28;20104;-59
2022/08/28 06:51:53;;;;;;;4.15;2.15;;;15.80;99.90;;;;;;5013588;28;20508;-58
2022/08/28 06:54:19;;;;;;;4.18;2.00;;;15.90;99.90;;;;;;5014044;28;20048;-59
2022/08/28 06:56:49;;;;;;;5.70;1.83;;;16.00;99.90;;;;;;5013830;28;20132;-59
2022/08/28 06:59:16;;;;;;;4.20;2.03;;;16.10;99.90;;;;;;4996478;28;20053;-59
2022/08/28 07:01:43;;;;;;;7.80;1.80;;;16.20;99.90;;;;;;4996816;28;20082;-58
2022/08/28 07:04:11;;;;;;;6.13;2.15;;;16.30;99.90;;;;;;5013375;28;20437;-59
2022/08/28 07:06:40;;;;;;;6.57;1.70;;;16.40;99.90;;;;;;5013523;28;20270;-61
2022/08/28 07:09:09;;;;;;;5.32;1.55;;;16.40;99.90;;;;;;4995936;28;20112;-59
2022/08/28 07:11:36;;;;;;;6.80;1.63;;;16.50;99.90;;;;;;4995704;28;20103;-59
2022/08/28 07:14:04;;;;;;;6.53;1.52;;;16.50;99.90;;;;;;5007850;28;20084;-58
2022/08/28 07:16:33;;;;;;;4.22;1.52;;;16.60;99.90;;;;;;4995892;28;20088;-59
2022/08/28 07:19:03;;;;;;;5.82;1.23;;;16.60;99.90;;;;;;4995951;28;20069;-60
2022/08/28 07:21:32;;;;;;;5.45;1.48;;;16.70;99.90;;;;;;5013407;28;20073;-60
2022/08/28 07:24:05;;;;;;;7.55;1.48;;;16.70;99.90;;;;;;4986048;28;20050;-60
2022/08/28 07:26:32;;;;;;;4.65;1.35;;;16.70;99.90;;;;;;5012842;28;20054;-59
2022/08/28 07:29:03;;;;;;;5.75;1.50;;;16.80;99.90;;;;;;5003429;28;20125;-59
2022/08/28 07:31:40;;;;;;;4.28;1.60;;;16.90;99.90;;;;;;5010143;28;20060;-59
2022/08/28 07:34:08;;;;;;;6.15;1.60;;;16.90;99.90;;;;;;5013421;28;20042;-60
2022/08/28 07:36:35;;;;;;;11.30;1.80;;;17.00;99.90;;;;;;5013616;28;20058;-59
2022/08/28 07:39:03;;;;;;;4.88;1.65;;;17.00;99.90;;;;;;4980347;28;20112;-59
2022/08/28 07:41:31;;;;;;;7.15;2.00;;;17.10;99.90;;;;;;4980367;28;20061;-58
2022/08/28 07:46:44;;;;;;;6.38;1.85;;;17.20;99.90;;;;;;5002577;28;20057;-59
2022/08/28 07:49:11;;;;;;;7.53;1.52;;;17.20;99.90;;;;;;4999231;28;20136;-58
2022/08/28 07:51:38;;;;;;;5.22;1.67;;;17.30;99.90;;;;;;4996586;28;20053;-59
2022/08/28 07:54:05;;;;;;;5.60;1.67;;;17.30;99.90;;;;;;4995538;28;20050;-60
2022/08/28 07:56:39;;;;;;;8.95;1.80;;;17.40;99.90;;;;;;4996185;28;20050;-59
2022/08/28 07:59:07;;;;;;;10.55;3.03;;;17.40;99.90;;;;;;4965033;28;20046;-59
2022/08/28 08:01:38;;;;;;;11.55;1.90;;;17.50;99.90;;;;;;5012590;28;20540;-58
2022/08/28 08:04:06;;;;;;;15.82;2.10;;;17.50;99.90;;;;;;5012233;28;20045;-60
2022/08/28 08:06:33;;;;;;;17.80;4.35;;;17.60;99.90;;;;;;4995402;28;20517;-60
2022/08/28 08:09:01;;;;;;;14.65;3.00;;;17.70;99.90;;;;;;4995049;28;20196;-60
2022/08/28 08:11:28;;;;;;;7.25;1.83;;;17.80;99.90;;;;;;4978780;28;20046;-60
2022/08/28 08:14:03;;;;;;;11.65;2.17;;;17.80;99.90;;;;;;4995884;28;20057;-60
2022/08/28 08:16:33;;;;;;;4.95;1.48;;;18.00;99.90;;;;;;4996394;28;20073;-60
2022/08/28 08:19:00;;;;;;;7.63;1.60;;;18.00;99.90;;;;;;5012614;28;20049;-60
2022/08/28 08:21:27;;;;;;;7.45;2.05;;;18.10;99.90;;;;;;4994668;28;20049;-60
2022/08/28 08:23:57;;;;;;;10.18;2.15;;;18.10;99.90;;;;;;5012023;28;20431;-60
2022/08/28 08:26:24;;;;;;;15.23;2.55;;;18.20;99.90;;;;;;4994755;28;20049;-60
2022/08/28 08:28:51;;;;;;;16.25;2.35;;;18.40;99.90;;;;;;5001723;28;20088;-60
2022/08/28 08:31:25;;;;;;;7.78;1.80;;;18.40;99.90;;;;;;5001202;28;20065;-60
2022/08/28 08:33:56;;;;;;;10.05;2.20;;;18.50;99.90;;;;;;4979421;28;20073;-61
2022/08/28 08:36:24;;;;;;;9.40;2.17;;;18.60;99.90;;;;;;4995636;28;20431;-59
2022/08/28 08:38:52;;;;;;;4.80;1.45;;;18.80;99.90;;;;;;5012488;28;20037;-60
2022/08/28 08:41:48;;;;;;;8.32;2.25;;;18.80;99.90;;;;;;4995695;28;20076;-60
2022/08/28 08:44:27;;;;;;;10.60;1.85;;;18.90;99.90;;;;;;4981419;28;20460;-60
2022/08/28 08:47:35;;;;;;;6.22;2.58;;;19.00;99.90;;;;;;5002606;28;20080;-60
2022/08/28 08:50:07;;;;;;;14.27;2.60;;;19.00;99.90;;;;;;4905307;29;20408;-60
2022/08/28 08:52:49;;;;;;;5.25;1.40;;;19.20;99.90;;;;;;4992673;28;20508;-60
2022/08/28 08:55:35;;;;;;;10.88;1.42;;;19.20;99.90;;;;;;4994659;28;20292;-59
2022/08/28 08:58:32;;;;;;;12.65;2.25;;;19.40;99.90;;;;;;5012240;28;20073;-59
2022/08/28 09:01:16;;;;;;;5.15;1.85;;;19.40;99.90;;;;;;4994861;28;20406;-60
2022/08/28 09:03:58;;;;;;;9.55;1.45;;;19.60;99.90;;;;;;5006329;28;20081;-60
2022/08/28 09:06:34;;;;;;;8.60;1.45;;;19.60;99.90;;;;;;4974876;28;20054;-60
2022/08/28 09:09:02;;;;;;;19.02;2.22;;;19.60;99.90;;;;;;4989990;28;20080;-60
2022/08/28 09:11:33;;;;;;;5.82;1.83;;;19.60;99.90;;;;;;4993460;28;20559;-60
2022/08/28 09:14:11;;;;;;;6.35;1.35;;;19.70;99.90;;;;;;4975619;28;20113;-59
2022/08/28 09:16:40;;;;;;;6.35;1.70;;;19.80;99.90;;;;;;4975558;28;20174;-59
2022/08/28 09:19:08;;;;;;;8.43;1.90;;;19.90;99.90;;;;;;4991350;28;20078;-59
2022/08/28 09:21:40;;;;;;;14.85;2.42;;;20.00;99.90;;;;;;4958866;28;20097;-59
2022/08/28 09:24:21;;;;;;;8.00;2.10;;;20.00;99.90;;;;;;4990771;28;20058;-59
2022/08/28 09:27:13;;;;;;;7.22;1.90;;;20.20;99.90;;;;;;4991138;28;20050;-59
2022/08/28 09:29:46;;;;;;;8.75;1.88;;;20.30;99.90;;;;;;4987387;28;20046;-60
2022/08/28 09:32:29;;;;;;;11.97;2.00;;;20.50;99.90;;;;;;4975146;28;20428;-59
2022/08/28 09:35:01;;;;;;;6.20;2.60;;;20.50;99.90;;;;;;4990230;28;20054;-59
2022/08/28 09:37:31;;;;;;;6.10;1.52;;;20.50;99.90;;;;;;4995644;28;20113;-59
2022/08/28 09:40:18;;;;;;;11.07;2.22;;;20.40;99.90;;;;;;4990686;28;20469;-60
2022/08/28 09:43:26;;;;;;;10.25;1.65;;;20.30;99.90;;;;;;4994496;28;20057;-61
2022/08/28 09:46:28;;;;;;;13.88;2.08;;;20.30;99.90;;;;;;4990237;28;20038;-58
2022/08/28 09:49:23;;;;;;;12.32;2.65;;;20.40;99.90;;;;;;4994256;28;20077;-59
2022/08/28 09:51:50;;;;;;;11.43;2.42;;;20.50;99.90;;;;;;4984170;28;20077;-59
2022/08/28 09:54:27;;;;;;;5.40;1.33;;;20.70;99.90;;;;;;4977729;28;20442;-59
2022/08/28 09:56:54;;;;;;;7.25;1.67;;;20.80;99.90;;;;;;4969160;28;20065;-60
2022/08/28 09:59:22;;;;;;;10.23;1.92;;;20.90;99.90;;;;;;4994676;28;20532;-58
2022/08/28 10:01:59;;;;;;;6.80;1.60;;;21.10;99.90;;;;;;4993622;28;20101;-59
2022/08/28 10:04:38;;;;;;;7.55;1.50;;;21.50;99.90;;;;;;4984367;28;20138;-59
2022/08/28 10:07:10;;;;;;;6.28;1.50;;;21.70;99.90;;;;;;4994771;28;20052;-59
2022/08/28 10:09:53;;;;;;;7.50;1.88;;;22.00;99.90;;;;;;4977472;28;20406;-59
2022/08/28 10:12:41;;;;;;;10.32;2.15;;;22.20;99.60;;;;;;4984427;28;20077;-62
2022/08/28 10:15:22;;;;;;;12.82;3.78;;;22.40;99.70;;;;;;5014354;28;20493;-59
2022/08/28 10:18:00;;;;;;;8.55;1.77;;;22.40;97.10;;;;;;4997274;28;20058;-60
2022/08/28 10:20:54;;;;;;;10.70;2.95;;;22.30;95.40;;;;;;5013943;28;20058;-60
2022/08/28 10:23:24;;;;;;;;;;;22.10;95.60;;;;;;5014084;28;20045;-60
2022/08/28 10:25:57;;;;;;;8.75;1.77;;;22.00;95.20;;;;;;5014087;28;19922;-60
2022/08/28 10:28:31;;;;;;;5.50;1.45;;;21.90;98.30;;;;;;4996449;28;20576;-60
2022/08/28 10:31:50;;;;;;;5.72;1.40;;;21.90;98.90;;;;;;5013956;28;20046;-59
2022/08/28 10:34:35;;;;;;;5.60;1.58;;;21.80;96.50;;;;;;4981029;28;20045;-59
2022/08/28 10:37:14;;;;;;;5.05;1.02;;;21.90;96.70;;;;;;5010488;28;20058;-59
2022/08/28 10:39:54;;;;;;;5.68;1.75;;;22.00;96.10;;;;;;5014144;28;20568;-60
2022/08/28 10:42:35;;;;;;;4.20;1.10;;;22.10;97.00;;;;;;4981786;28;20088;-60
2022/08/28 10:45:11;;;;;;;6.00;1.50;;;22.10;94.70;;;;;;4996017;28;20050;-59
2022/08/28 10:47:39;;;;;;;8.88;1.73;;;22.00;96.40;;;;;;4981698;28;20120;-59
2022/08/28 10:50:13;;;;;;;13.30;1.95;;;22.00;95.10;;;;;;4996871;28;20050;-59
2022/08/28 10:53:00;;;;;;;4.50;1.02;;;22.10;95.10;;;;;;4965257;28;20100;-59
2022/08/28 10:55:58;;;;;;;3.92;1.55;;;22.10;94.50;;;;;;4996535;28;20096;-59
2022/08/28 10:58:25;;;;;;;7.13;1.80;;;22.20;96.00;;;;;;4998599;28;20050;-60
2022/08/28 11:00:56;;;;;;;9.73;1.80;;;22.40;96.80;;;;;;4964712;28;20096;-59
2022/08/28 11:03:24;;;;;;;8.95;1.80;;;22.50;95.40;;;;;;4995955;28;20425;-60
2022/08/28 11:06:12;;;;;;;5.57;1.33;;;22.40;93.30;;;;;;4984227;28;20045;-60
2022/08/28 11:08:38;;;;;;;5.03;1.63;;;22.40;94.00;;;;;;4995219;28;20496;-60
2022/08/28 11:11:11;;;;;;;9.68;2.03;;;22.50;93.60;;;;;;4980085;28;20046;-60
2022/08/28 11:13:44;;;;;;;7.78;2.15;;;22.60;93.60;;;;;;4980193;28;20112;-59
2022/08/28 11:16:31;;;;;;;4.57;1.25;;;22.60;91.50;;;;;;5013125;28;20042;-60
2022/08/28 11:19:30;;;;;;;8.55;1.75;;;22.60;90.70;;;;;;4994334;28;20073;-59
2022/08/28 11:22:22;;;;;;;13.32;2.42;;;22.50;90.70;;;;;;5013122;28;20076;-60
2022/08/28 11:24:55;;;;;;;5.68;1.60;;;22.60;91.30;;;;;;4956861;28;20076;-59
2022/08/28 11:27:32;;;;;;;11.85;2.40;;;22.70;88.60;;;;;;4982381;28;20046;-59
2022/08/28 11:30:00;;;;;;;9.80;1.30;;;22.80;90.20;;;;;;5013288;28;20504;-59
2022/08/28 11:32:32;;;;;;;7.00;1.58;;;22.90;90.50;;;;;;5013498;28;20104;-60
2022/08/28 11:35:00;;;;;;;6.25;1.95;;;22.90;86.20;;;;;;5013639;28;20536;-59
2022/08/28 11:37:39;;;;;;;4.22;1.40;;;22.90;90.20;;;;;;4996692;28;20068;-59
2022/08/28 11:40:18;;;;;;;10.18;1.70;;;22.90;83.50;;;;;;5013758;28;20042;-60
2022/08/28 11:42:47;;;;;;;13.25;1.65;;;23.00;84.20;;;;;;5003004;28;20095;-60
2022/08/28 11:45:40;;;;;;;4.10;1.40;;;23.10;88.10;;;;;;5013759;28;20620;-60
2022/08/28 11:48:34;;;;;;;5.00;1.30;;;23.20;83.70;;;;;;4991100;28;20489;-60
2022/08/28 11:51:26;;;;;;;7.25;1.20;;;23.20;79.30;;;;;;5002746;28;20069;-60
2022/08/28 11:54:02;;;;;;;6.47;1.27;;;23.20;83.40;;;;;;4972379;28;20050;-60
2022/08/28 11:56:41;;;;;;;5.78;2.03;;;23.20;80.90;;;;;;5012636;28;20386;-60
2022/08/28 11:59:42;;;;;;;4.63;1.33;;;23.30;81.30;;;;;;5013025;28;20056;-60
2022/08/28 12:02:39;;;;;;;10.82;2.05;;;23.40;79.80;;;;;;5012660;28;20412;-60
2022/08/28 12:05:10;;;;;;;7.53;1.58;;;23.40;78.30;;;;;;5010720;28;20129;-59
2022/08/28 12:07:42;;;;;;;8.32;1.80;;;23.40;81.50;;;;;;4996007;28;20219;-61
2022/08/28 12:10:26;;;;;;;6.95;1.35;;;23.40;80.90;;;;;;5014335;28;20069;-59
2022/08/28 12:13:06;;;;;;;6.32;2.03;;;23.40;79.00;;;;;;4993049;28;20262;-60
2022/08/28 12:15:33;;;;;;;2.15;0.93;;;23.50;78.70;;;;;;4978113;28;20053;-59
2022/08/28 12:18:01;;;;;;;6.22;1.48;;;23.60;81.90;;;;;;4995223;28;20054;-59
2022/08/28 12:20:46;;;;;;;4.30;1.33;;;23.70;80.80;;;;;;4996536;28;20054;-59
2022/08/28 12:23:22;;;;;;;5.35;1.50;;;23.80;76.00;;;;;;4978733;28;20124;-60
2022/08/28 12:25:53;;;;;;;3.75;1.05;;;23.80;76.60;;;;;;4996240;28;20112;-59
2022/08/28 12:28:31;;;;;;;4.38;1.70;;;23.70;77.20;;;;;;4974209;28;20042;-59
2022/08/28 12:31:04;;;;;;;5.70;1.25;;;23.70;75.00;;;;;;4979677;28;20077;-60
2022/08/28 12:33:52;;;;;;;3.60;1.42;;;23.80;75.70;;;;;;4995702;28;20060;-59
2022/08/28 12:36:25;;;;;;;5.90;1.52;;;23.70;74.50;;;;;;4995404;28;20046;-60
2022/08/28 12:38:52;;;;;;;3.72;1.10;;;23.80;77.80;;;;;;4996804;28;20046;-59
2022/08/28 12:41:19;;;;;;;2.72;1.08;;;23.90;76.10;;;;;;4995113;28;20126;-59
2022/08/28 12:43:47;;;;;;;6.40;1.00;;;23.80;76.30;;;;;;4995388;28;20070;-61
2022/08/28 12:46:28;;;;;;;7.97;1.27;;;23.90;75.80;;;;;;4996099;28;20050;-58
2022/08/28 12:48:59;;;;;;;6.90;1.30;;;24.00;71.50;;;;;;4980011;28;20161;-59
2022/08/28 12:51:34;;;;;;;6.45;1.33;;;24.00;74.50;;;;;;4979805;28;20074;-59
2022/08/28 12:54:03;;;;;;;5.55;1.48;;;23.90;71.20;;;;;;4975589;28;20172;-59
2022/08/28 12:56:35;;;;;;;3.03;1.20;;;23.90;73.10;;;;;;4990167;28;20068;-59
2022/08/28 12:59:21;;;;;;;7.28;1.50;;;23.90;72.50;;;;;;4977038;28;20078;-59
2022/08/28 13:01:53;;;;;;;5.50;1.70;;;23.80;71.90;;;;;;4988916;28;20379;-59
2022/08/28 13:04:30;;;;;;;5.10;1.58;;;23.90;75.30;;;;;;4991693;28;20093;-60
2022/08/28 13:07:09;;;;;;;5.32;1.23;;;24.10;72.80;;;;;;4972194;28;20510;-60
2022/08/28 13:09:37;;;;;;;7.60;0.82;;;24.20;72.10;;;;;;4995189;28;20050;-59
2022/08/28 13:12:04;;;;;;;6.60;1.33;;;24.40;73.10;;;;;;4995014;28;20050;-59
2022/08/28 13:14:45;;;;;;;8.02;1.42;;;24.30;71.90;;;;;;5014953;28;20060;-60